Terminal Aerodrome Forecast
Issued by NWS Tuscon, AZ

Home | Current Version | Previous Version | Text Only | Print | Product List | Glossary On
Versions: 1 2 3 4 5 6 7 8 9 10 11 12 13 14
000
FTUS45 KTWC 251740
TAFTUS
TAF
KTUS 251740Z 2518/2618 19008KT P6SM FEW070 SCT250
     FM251900 24017G27KT P6SM SCT060 SCT120
     FM260300 28013KT P6SM FEW040 BKN060 BKN120
     FM260700 VRB05KT P6SM VCSH SCT040 BKN060=

USA.gov is the U.S. government's official web portal to all federal, state and local government web resources and services.